sensor_id;sensor_type;location;lat;lon;timestamp;P1;durP1;ratioP1;P2;durP2;ratioP2
66012;SDS011;52783;50.502;8.190;2024-01-15T00:01:43;17.92;;;7.93;;
66012;SDS011;52783;50.502;8.190;2024-01-15T00:04:09;13.70;;;6.60;;
66012;SDS011;52783;50.502;8.190;2024-01-15T00:06:35;24.17;;;9.48;;
66012;SDS011;52783;50.502;8.190;2024-01-15T00:09:00;19.10;;;8.10;;
66012;SDS011;52783;50.502;8.190;2024-01-15T00:11:26;20.00;;;8.75;;
66012;SDS011;52783;50.502;8.190;2024-01-15T00:13:52;12.45;;;6.38;;
66012;SDS011;52783;50.502;8.190;2024-01-15T00:16:17;19.73;;;8.65;;
66012;SDS011;52783;50.502;8.190;2024-01-15T00:18:43;22.05;;;7.95;;
66012;SDS011;52783;50.502;8.190;2024-01-15T00:21:08;18.00;;;8.20;;
66012;SDS011;52783;50.502;8.190;2024-01-15T00:23:34;16.33;;;7.25;;
66012;SDS011;52783;50.502;8.190;2024-01-15T00:26:00;17.13;;;7.70;;
66012;SDS011;52783;50.502;8.190;2024-01-15T00:28:25;25.08;;;8.20;;
66012;SDS011;52783;50.502;8.190;2024-01-15T00:30:51;20.85;;;8.65;;
66012;SDS011;52783;50.502;8.190;2024-01-15T00:33:16;21.88;;;9.00;;
66012;SDS011;52783;50.502;8.190;2024-01-15T00:35:42;20.38;;;8.80;;
66012;SDS011;52783;50.502;8.190;2024-01-15T00:38:07;20.55;;;8.50;;
66012;SDS011;52783;50.502;8.190;2024-01-15T00:40:33;18.25;;;7.80;;
66012;SDS011;52783;50.502;8.190;2024-01-15T00:42:58;18.27;;;7.53;;
66012;SDS011;52783;50.502;8.190;2024-01-15T00:45:24;14.75;;;8.48;;
66012;SDS011;52783;50.502;8.190;2024-01-15T00:47:49;18.45;;;8.45;;
66012;SDS011;52783;50.502;8.190;2024-01-15T00:50:15;20.23;;;9.25;;
66012;SDS011;52783;50.502;8.190;2024-01-15T00:52:42;18.52;;;7.90;;
66012;SDS011;52783;50.502;8.190;2024-01-15T00:55:07;18.52;;;7.57;;
66012;SDS011;52783;50.502;8.190;2024-01-15T00:57:33;15.80;;;8.25;;
66012;SDS011;52783;50.502;8.190;2024-01-15T00:59:59;21.08;;;8.32;;
66012;SDS011;52783;50.502;8.190;2024-01-15T01:02:24;16.13;;;6.53;;
66012;SDS011;52783;50.502;8.190;2024-01-15T01:04:51;14.93;;;7.28;;
66012;SDS011;52783;50.502;8.190;2024-01-15T01:07:16;16.63;;;7.07;;
66012;SDS011;52783;50.502;8.190;2024-01-15T01:09:42;17.23;;;7.70;;
66012;SDS011;52783;50.502;8.190;2024-01-15T01:12:08;17.58;;;7.70;;
66012;SDS011;52783;50.502;8.190;2024-01-15T01:14:34;19.95;;;9.18;;
66012;SDS011;52783;50.502;8.190;2024-01-15T01:17:00;16.20;;;8.07;;
66012;SDS011;52783;50.502;8.190;2024-01-15T01:19:25;18.13;;;7.97;;
66012;SDS011;52783;50.502;8.190;2024-01-15T01:21:51;21.50;;;10.25;;
66012;SDS011;52783;50.502;8.190;2024-01-15T01:24:16;21.58;;;10.02;;
66012;SDS011;52783;50.502;8.190;2024-01-15T01:26:42;22.42;;;8.27;;
66012;SDS011;52783;50.502;8.190;2024-01-15T01:29:08;19.98;;;9.57;;
66012;SDS011;52783;50.502;8.190;2024-01-15T01:31:33;24.13;;;9.02;;
66012;SDS011;52783;50.502;8.190;2024-01-15T01:33:59;26.90;;;10.15;;
66012;SDS011;52783;50.502;8.190;2024-01-15T01:36:24;26.60;;;9.77;;
66012;SDS011;52783;50.502;8.190;2024-01-15T01:38:50;19.65;;;9.00;;
66012;SDS011;52783;50.502;8.190;2024-01-15T01:41:15;25.38;;;9.38;;
66012;SDS011;52783;50.502;8.190;2024-01-15T01:43:41;21.83;;;9.18;;
66012;SDS011;52783;50.502;8.190;2024-01-15T01:46:08;20.98;;;9.27;;
66012;SDS011;52783;50.502;8.190;2024-01-15T01:48:34;25.50;;;9.90;;
66012;SDS011;52783;50.502;8.190;2024-01-15T01:51:02;23.52;;;8.95;;
66012;SDS011;52783;50.502;8.190;2024-01-15T01:53:29;21.98;;;8.80;;
66012;SDS011;52783;50.502;8.190;2024-01-15T01:55:56;25.45;;;10.73;;
66012;SDS011;52783;50.502;8.190;2024-01-15T01:58:22;25.67;;;10.73;;
66012;SDS011;52783;50.502;8.190;2024-01-15T02:00:48;22.67;;;9.90;;
66012;SDS011;52783;50.502;8.190;2024-01-15T02:03:14;20.17;;;9.40;;
66012;SDS011;52783;50.502;8.190;2024-01-15T02:05:40;24.95;;;9.68;;
66012;SDS011;52783;50.502;8.190;2024-01-15T02:08:07;28.60;;;10.27;;
66012;SDS011;52783;50.502;8.190;2024-01-15T02:10:33;27.58;;;11.20;;
66012;SDS011;52783;50.502;8.190;2024-01-15T02:12:59;24.85;;;9.38;;
66012;SDS011;52783;50.502;8.190;2024-01-15T02:15:24;25.45;;;9.23;;
66012;SDS011;52783;50.502;8.190;2024-01-15T02:18:02;25.85;;;10.68;;
66012;SDS011;52783;50.502;8.190;2024-01-15T02:20:29;21.42;;;9.30;;
66012;SDS011;52783;50.502;8.190;2024-01-15T02:25:33;22.23;;;9.70;;
66012;SDS011;52783;50.502;8.190;2024-01-15T02:27:59;25.92;;;10.40;;
66012;SDS011;52783;50.502;8.190;2024-01-15T02:30:25;21.00;;;9.07;;
66012;SDS011;52783;50.502;8.190;2024-01-15T02:32:51;21.10;;;8.32;;
66012;SDS011;52783;50.502;8.190;2024-01-15T02:35:17;23.13;;;8.60;;
66012;SDS011;52783;50.502;8.190;2024-01-15T02:37:43;23.80;;;10.20;;
66012;SDS011;52783;50.502;8.190;2024-01-15T02:40:08;29.58;;;10.13;;
66012;SDS011;52783;50.502;8.190;2024-01-15T02:42:34;27.08;;;10.02;;
66012;SDS011;52783;50.502;8.190;2024-01-15T02:45:00;26.08;;;9.85;;
66012;SDS011;52783;50.502;8.190;2024-01-15T02:47:25;25.13;;;9.45;;
66012;SDS011;52783;50.502;8.190;2024-01-15T02:49:51;23.90;;;10.00;;
66012;SDS011;52783;50.502;8.190;2024-01-15T02:52:16;22.45;;;8.45;;
66012;SDS011;52783;50.502;8.190;2024-01-15T02:54:42;20.33;;;8.57;;
66012;SDS011;52783;50.502;8.190;2024-01-15T02:57:08;24.70;;;9.07;;
66012;SDS011;52783;50.502;8.190;2024-01-15T02:59:33;31.00;;;10.93;;
66012;SDS011;52783;50.502;8.190;2024-01-15T03:01:59;26.63;;;10.38;;
66012;SDS011;52783;50.502;8.190;2024-01-15T03:04:24;26.63;;;9.98;;
66012;SDS011;52783;50.502;8.190;2024-01-15T03:06:49;25.50;;;9.85;;
66012;SDS011;52783;50.502;8.190;2024-01-15T03:09:15;27.45;;;10.63;;
66012;SDS011;52783;50.502;8.190;2024-01-15T03:11:40;18.85;;;8.30;;
66012;SDS011;52783;50.502;8.190;2024-01-15T03:14:06;29.05;;;9.38;;
66012;SDS011;52783;50.502;8.190;2024-01-15T03:16:31;30.75;;;12.05;;
66012;SDS011;52783;50.502;8.190;2024-01-15T03:18:57;24.80;;;9.95;;
66012;SDS011;52783;50.502;8.190;2024-01-15T03:21:22;31.58;;;13.15;;
66012;SDS011;52783;50.502;8.190;2024-01-15T03:23:48;25.35;;;10.00;;
66012;SDS011;52783;50.502;8.190;2024-01-15T03:26:13;32.70;;;10.57;;
66012;SDS011;52783;50.502;8.190;2024-01-15T03:28:39;26.45;;;10.70;;
66012;SDS011;52783;50.502;8.190;2024-01-15T03:31:04;22.73;;;9.45;;
66012;SDS011;52783;50.502;8.190;2024-01-15T03:33:30;25.63;;;9.25;;
66012;SDS011;52783;50.502;8.190;2024-01-15T03:35:55;25.48;;;9.15;;
66012;SDS011;52783;50.502;8.190;2024-01-15T03:38:22;22.95;;;10.60;;
66012;SDS011;52783;50.502;8.190;2024-01-15T03:40:48;27.13;;;10.57;;
66012;SDS011;52783;50.502;8.190;2024-01-15T03:43:13;33.80;;;10.88;;
66012;SDS011;52783;50.502;8.190;2024-01-15T03:45:39;28.88;;;10.10;;
66012;SDS011;52783;50.502;8.190;2024-01-15T03:48:04;28.60;;;10.13;;
66012;SDS011;52783;50.502;8.190;2024-01-15T03:50:30;26.98;;;9.82;;
66012;SDS011;52783;50.502;8.190;2024-01-15T03:52:55;31.77;;;11.40;;
66012;SDS011;52783;50.502;8.190;2024-01-15T03:55:21;27.13;;;9.48;;
66012;SDS011;52783;50.502;8.190;2024-01-15T03:57:46;34.08;;;10.55;;
66012;SDS011;52783;50.502;8.190;2024-01-15T04:00:12;29.27;;;9.48;;
66012;SDS011;52783;50.502;8.190;2024-01-15T04:02:39;26.67;;;10.32;;
66012;SDS011;52783;50.502;8.190;2024-01-15T04:05:04;26.38;;;9.73;;
66012;SDS011;52783;50.502;8.190;2024-01-15T04:07:30;32.08;;;11.93;;
66012;SDS011;52783;50.502;8.190;2024-01-15T04:09:55;24.45;;;8.90;;
66012;SDS011;52783;50.502;8.190;2024-01-15T04:12:21;23.23;;;10.48;;
66012;SDS011;52783;50.502;8.190;2024-01-15T04:14:46;24.52;;;9.57;;
66012;SDS011;52783;50.502;8.190;2024-01-15T04:17:12;34.22;;;13.13;;
66012;SDS011;52783;50.502;8.190;2024-01-15T04:19:37;31.48;;;9.00;;
66012;SDS011;52783;50.502;8.190;2024-01-15T04:22:03;27.80;;;10.77;;
66012;SDS011;52783;50.502;8.190;2024-01-15T04:24:31;27.48;;;10.48;;
66012;SDS011;52783;50.502;8.190;2024-01-15T04:26:56;36.30;;;11.77;;
66012;SDS011;52783;50.502;8.190;2024-01-15T04:29:22;38.33;;;12.38;;
66012;SDS011;52783;50.502;8.190;2024-01-15T04:31:47;29.10;;;9.95;;
66012;SDS011;52783;50.502;8.190;2024-01-15T04:34:13;30.83;;;11.88;;
66012;SDS011;52783;50.502;8.190;2024-01-15T04:36:39;29.50;;;10.45;;
66012;SDS011;52783;50.502;8.190;2024-01-15T04:39:05;31.38;;;11.40;;
66012;SDS011;52783;50.502;8.190;2024-01-15T04:41:31;26.17;;;9.95;;
66012;SDS011;52783;50.502;8.190;2024-01-15T04:43:57;34.58;;;13.05;;
66012;SDS011;52783;50.502;8.190;2024-01-15T04:46:22;35.42;;;9.95;;
66012;SDS011;52783;50.502;8.190;2024-01-15T04:48:47;18.23;;;7.65;;
66012;SDS011;52783;50.502;8.190;2024-01-15T04:51:13;28.85;;;10.23;;
66012;SDS011;52783;50.502;8.190;2024-01-15T04:53:38;27.52;;;10.32;;
66012;SDS011;52783;50.502;8.190;2024-01-15T04:56:04;35.15;;;12.35;;
66012;SDS011;52783;50.502;8.190;2024-01-15T04:58:29;18.80;;;9.07;;
66012;SDS011;52783;50.502;8.190;2024-01-15T05:00:55;30.88;;;10.82;;
66012;SDS011;52783;50.502;8.190;2024-01-15T05:03:21;33.58;;;11.98;;
66012;SDS011;52783;50.502;8.190;2024-01-15T05:05:46;30.40;;;11.05;;
66012;SDS011;52783;50.502;8.190;2024-01-15T05:08:12;38.85;;;12.10;;
66012;SDS011;52783;50.502;8.190;2024-01-15T05:10:37;29.40;;;10.43;;
66012;SDS011;52783;50.502;8.190;2024-01-15T05:13:03;36.47;;;13.88;;
66012;SDS011;52783;50.502;8.190;2024-01-15T05:15:28;34.03;;;12.38;;
66012;SDS011;52783;50.502;8.190;2024-01-15T05:17:54;26.77;;;11.88;;
66012;SDS011;52783;50.502;8.190;2024-01-15T05:20:20;32.95;;;12.27;;
66012;SDS011;52783;50.502;8.190;2024-01-15T05:22:45;29.73;;;10.32;;
66012;SDS011;52783;50.502;8.190;2024-01-15T05:25:11;30.48;;;12.00;;
66012;SDS011;52783;50.502;8.190;2024-01-15T05:27:36;36.03;;;11.15;;
66012;SDS011;52783;50.502;8.190;2024-01-15T05:30:02;33.53;;;11.85;;
66012;SDS011;52783;50.502;8.190;2024-01-15T05:32:28;27.02;;;11.25;;
66012;SDS011;52783;50.502;8.190;2024-01-15T05:34:54;27.67;;;11.68;;
66012;SDS011;52783;50.502;8.190;2024-01-15T05:37:20;27.00;;;10.90;;
66012;SDS011;52783;50.502;8.190;2024-01-15T05:39:45;27.33;;;9.50;;
66012;SDS011;52783;50.502;8.190;2024-01-15T05:42:11;28.42;;;10.70;;
66012;SDS011;52783;50.502;8.190;2024-01-15T05:44:36;30.60;;;11.45;;
66012;SDS011;52783;50.502;8.190;2024-01-15T05:47:02;23.73;;;10.18;;
66012;SDS011;52783;50.502;8.190;2024-01-15T05:49:29;26.63;;;10.70;;
66012;SDS011;52783;50.502;8.190;2024-01-15T05:51:54;27.40;;;11.45;;
66012;SDS011;52783;50.502;8.190;2024-01-15T05:54:20;27.88;;;11.25;;
66012;SDS011;52783;50.502;8.190;2024-01-15T05:56:45;25.88;;;11.15;;
66012;SDS011;52783;50.502;8.190;2024-01-15T05:59:11;32.13;;;11.98;;
66012;SDS011;52783;50.502;8.190;2024-01-15T06:01:36;27.05;;;10.70;;
66012;SDS011;52783;50.502;8.190;2024-01-15T06:04:02;33.28;;;10.80;;
66012;SDS011;52783;50.502;8.190;2024-01-15T06:06:27;26.10;;;10.02;;
66012;SDS011;52783;50.502;8.190;2024-01-15T06:08:53;21.98;;;9.60;;
66012;SDS011;52783;50.502;8.190;2024-01-15T06:11:18;24.02;;;9.77;;
66012;SDS011;52783;50.502;8.190;2024-01-15T06:13:44;26.33;;;10.82;;
66012;SDS011;52783;50.502;8.190;2024-01-15T06:16:15;26.02;;;9.95;;
66012;SDS011;52783;50.502;8.190;2024-01-15T06:18:41;28.67;;;10.35;;
66012;SDS011;52783;50.502;8.190;2024-01-15T06:21:07;32.20;;;10.70;;
66012;SDS011;52783;50.502;8.190;2024-01-15T06:23:35;37.72;;;12.82;;
66012;SDS011;52783;50.502;8.190;2024-01-15T06:26:01;28.08;;;10.70;;
66012;SDS011;52783;50.502;8.190;2024-01-15T06:28:28;24.65;;;9.20;;
66012;SDS011;52783;50.502;8.190;2024-01-15T06:30:54;32.13;;;10.98;;
66012;SDS011;52783;50.502;8.190;2024-01-15T06:33:19;31.13;;;11.43;;
66012;SDS011;52783;50.502;8.190;2024-01-15T06:35:45;25.02;;;9.90;;
66012;SDS011;52783;50.502;8.190;2024-01-15T06:38:10;33.42;;;11.13;;
66012;SDS011;52783;50.502;8.190;2024-01-15T06:40:36;27.42;;;10.48;;
66012;SDS011;52783;50.502;8.190;2024-01-15T06:43:01;23.00;;;10.25;;
66012;SDS011;52783;50.502;8.190;2024-01-15T06:45:27;24.45;;;9.75;;
66012;SDS011;52783;50.502;8.190;2024-01-15T06:47:53;32.30;;;11.30;;
66012;SDS011;52783;50.502;8.190;2024-01-15T06:50:18;30.67;;;11.73;;
66012;SDS011;52783;50.502;8.190;2024-01-15T06:52:44;34.80;;;12.20;;
66012;SDS011;52783;50.502;8.190;2024-01-15T06:55:09;35.20;;;12.15;;
66012;SDS011;52783;50.502;8.190;2024-01-15T06:57:35;28.75;;;12.13;;
66012;SDS011;52783;50.502;8.190;2024-01-15T07:00:00;22.20;;;10.35;;
66012;SDS011;52783;50.502;8.190;2024-01-15T07:02:26;33.85;;;11.65;;
66012;SDS011;52783;50.502;8.190;2024-01-15T07:04:51;32.67;;;11.05;;
66012;SDS011;52783;50.502;8.190;2024-01-15T07:07:17;24.15;;;10.93;;
66012;SDS011;52783;50.502;8.190;2024-01-15T07:09:42;30.67;;;10.95;;
66012;SDS011;52783;50.502;8.190;2024-01-15T07:12:08;29.48;;;11.30;;
66012;SDS011;52783;50.502;8.190;2024-01-15T07:14:33;31.48;;;12.00;;
66012;SDS011;52783;50.502;8.190;2024-01-15T07:16:59;31.13;;;10.98;;
66012;SDS011;52783;50.502;8.190;2024-01-15T07:19:24;28.50;;;11.55;;
66012;SDS011;52783;50.502;8.190;2024-01-15T07:21:50;25.45;;;10.38;;
66012;SDS011;52783;50.502;8.190;2024-01-15T07:24:15;29.45;;;10.60;;
66012;SDS011;52783;50.502;8.190;2024-01-15T07:26:41;31.55;;;12.18;;
66012;SDS011;52783;50.502;8.190;2024-01-15T07:29:06;29.70;;;11.18;;
66012;SDS011;52783;50.502;8.190;2024-01-15T07:31:33;32.67;;;11.98;;
66012;SDS011;52783;50.502;8.190;2024-01-15T07:33:59;31.58;;;11.27;;
66012;SDS011;52783;50.502;8.190;2024-01-15T07:36:25;27.45;;;10.57;;
66012;SDS011;52783;50.502;8.190;2024-01-15T07:38:50;30.83;;;11.00;;
66012;SDS011;52783;50.502;8.190;2024-01-15T07:41:16;35.10;;;12.45;;
66012;SDS011;52783;50.502;8.190;2024-01-15T07:43:41;30.00;;;12.27;;
66012;SDS011;52783;50.502;8.190;2024-01-15T07:46:07;27.00;;;12.38;;
66012;SDS011;52783;50.502;8.190;2024-01-15T07:48:32;29.20;;;11.48;;
66012;SDS011;52783;50.502;8.190;2024-01-15T07:50:58;34.00;;;11.35;;
66012;SDS011;52783;50.502;8.190;2024-01-15T07:53:23;35.60;;;11.75;;
66012;SDS011;52783;50.502;8.190;2024-01-15T07:55:49;40.15;;;13.63;;
66012;SDS011;52783;50.502;8.190;2024-01-15T07:58:14;28.10;;;10.65;;
66012;SDS011;52783;50.502;8.190;2024-01-15T08:00:40;28.75;;;11.23;;
66012;SDS011;52783;50.502;8.190;2024-01-15T08:03:05;38.45;;;12.55;;
66012;SDS011;52783;50.502;8.190;2024-01-15T08:05:31;35.05;;;12.13;;
66012;SDS011;52783;50.502;8.190;2024-01-15T08:07:57;37.05;;;12.43;;
66012;SDS011;52783;50.502;8.190;2024-01-15T08:10:23;29.98;;;11.70;;
66012;SDS011;52783;50.502;8.190;2024-01-15T08:12:48;31.15;;;11.10;;
66012;SDS011;52783;50.502;8.190;2024-01-15T08:15:14;37.95;;;13.90;;
66012;SDS011;52783;50.502;8.190;2024-01-15T08:17:39;35.20;;;13.57;;
66012;SDS011;52783;50.502;8.190;2024-01-15T08:20:05;39.10;;;14.20;;
66012;SDS011;52783;50.502;8.190;2024-01-15T08:22:30;44.90;;;12.57;;
66012;SDS011;52783;50.502;8.190;2024-01-15T08:24:56;33.65;;;13.68;;
66012;SDS011;52783;50.502;8.190;2024-01-15T08:27:22;33.58;;;14.10;;
66012;SDS011;52783;50.502;8.190;2024-01-15T08:29:47;43.38;;;15.20;;
66012;SDS011;52783;50.502;8.190;2024-01-15T08:32:13;29.08;;;13.20;;
66012;SDS011;52783;50.502;8.190;2024-01-15T08:34:40;38.33;;;15.43;;
66012;SDS011;52783;50.502;8.190;2024-01-15T08:37:06;45.55;;;14.85;;
66012;SDS011;52783;50.502;8.190;2024-01-15T08:39:32;39.22;;;13.35;;
66012;SDS011;52783;50.502;8.190;2024-01-15T08:41:57;40.50;;;14.20;;
66012;SDS011;52783;50.502;8.190;2024-01-15T08:44:22;40.25;;;13.50;;
66012;SDS011;52783;50.502;8.190;2024-01-15T08:46:48;32.45;;;13.02;;
66012;SDS011;52783;50.502;8.190;2024-01-15T08:49:13;28.13;;;11.23;;
66012;SDS011;52783;50.502;8.190;2024-01-15T08:51:39;30.73;;;11.73;;
66012;SDS011;52783;50.502;8.190;2024-01-15T08:54:05;44.67;;;13.27;;
66012;SDS011;52783;50.502;8.190;2024-01-15T08:56:30;34.28;;;13.02;;
66012;SDS011;52783;50.502;8.190;2024-01-15T08:58:56;37.70;;;13.18;;
66012;SDS011;52783;50.502;8.190;2024-01-15T09:01:21;47.67;;;15.65;;
66012;SDS011;52783;50.502;8.190;2024-01-15T09:03:48;28.05;;;12.15;;
66012;SDS011;52783;50.502;8.190;2024-01-15T09:06:13;32.70;;;12.25;;
66012;SDS011;52783;50.502;8.190;2024-01-15T09:08:39;34.85;;;13.25;;
66012;SDS011;52783;50.502;8.190;2024-01-15T09:11:04;34.22;;;13.20;;
66012;SDS011;52783;50.502;8.190;2024-01-15T09:13:30;33.90;;;10.98;;
66012;SDS011;52783;50.502;8.190;2024-01-15T09:15:56;29.33;;;11.55;;
66012;SDS011;52783;50.502;8.190;2024-01-15T09:18:21;32.35;;;11.95;;
66012;SDS011;52783;50.502;8.190;2024-01-15T09:20:47;27.52;;;12.80;;
66012;SDS011;52783;50.502;8.190;2024-01-15T09:23:12;23.73;;;10.50;;
66012;SDS011;52783;50.502;8.190;2024-01-15T09:25:38;22.20;;;10.70;;
66012;SDS011;52783;50.502;8.190;2024-01-15T09:28:03;25.98;;;10.30;;
66012;SDS011;52783;50.502;8.190;2024-01-15T09:30:29;27.83;;;11.35;;
66012;SDS011;52783;50.502;8.190;2024-01-15T09:32:54;24.10;;;10.25;;
66012;SDS011;52783;50.502;8.190;2024-01-15T09:35:20;32.45;;;11.85;;
66012;SDS011;52783;50.502;8.190;2024-01-15T09:37:45;26.40;;;12.32;;
66012;SDS011;52783;50.502;8.190;2024-01-15T09:40:12;29.38;;;11.10;;
66012;SDS011;52783;50.502;8.190;2024-01-15T09:42:41;33.42;;;13.73;;
66012;SDS011;52783;50.502;8.190;2024-01-15T09:45:07;24.83;;;10.85;;
66012;SDS011;52783;50.502;8.190;2024-01-15T09:47:34;26.35;;;11.80;;
66012;SDS011;52783;50.502;8.190;2024-01-15T09:50:01;25.40;;;10.45;;
66012;SDS011;52783;50.502;8.190;2024-01-15T09:52:28;22.55;;;10.32;;
66012;SDS011;52783;50.502;8.190;2024-01-15T09:54:55;21.15;;;10.68;;
66012;SDS011;52783;50.502;8.190;2024-01-15T09:57:23;25.23;;;10.45;;
66012;SDS011;52783;50.502;8.190;2024-01-15T09:59:48;25.73;;;10.38;;
66012;SDS011;52783;50.502;8.190;2024-01-15T10:02:16;24.92;;;11.27;;
66012;SDS011;52783;50.502;8.190;2024-01-15T10:04:43;23.48;;;10.52;;
66012;SDS011;52783;50.502;8.190;2024-01-15T10:07:09;22.27;;;10.77;;
66012;SDS011;52783;50.502;8.190;2024-01-15T10:09:40;22.55;;;11.52;;
66012;SDS011;52783;50.502;8.190;2024-01-15T10:12:05;23.60;;;11.52;;
66012;SDS011;52783;50.502;8.190;2024-01-15T10:14:32;24.30;;;11.35;;
66012;SDS011;52783;50.502;8.190;2024-01-15T10:16:57;19.55;;;10.25;;
66012;SDS011;52783;50.502;8.190;2024-01-15T10:19:23;24.00;;;10.27;;
66012;SDS011;52783;50.502;8.190;2024-01-15T10:21:48;20.50;;;10.43;;
66012;SDS011;52783;50.502;8.190;2024-01-15T10:24:14;19.23;;;9.70;;
66012;SDS011;52783;50.502;8.190;2024-01-15T10:26:39;21.27;;;10.73;;
66012;SDS011;52783;50.502;8.190;2024-01-15T10:29:05;14.43;;;7.30;;
66012;SDS011;52783;50.502;8.190;2024-01-15T10:31:30;18.90;;;9.50;;
66012;SDS011;52783;50.502;8.190;2024-01-15T10:34:09;20.58;;;9.98;;
66012;SDS011;52783;50.502;8.190;2024-01-15T10:36:40;22.90;;;10.75;;
66012;SDS011;52783;50.502;8.190;2024-01-15T10:39:06;21.25;;;9.85;;
66012;SDS011;52783;50.502;8.190;2024-01-15T10:41:32;21.08;;;9.65;;
66012;SDS011;52783;50.502;8.190;2024-01-15T10:43:58;17.30;;;9.05;;
66012;SDS011;52783;50.502;8.190;2024-01-15T10:46:23;18.55;;;9.02;;
66012;SDS011;52783;50.502;8.190;2024-01-15T10:48:50;16.65;;;9.15;;
66012;SDS011;52783;50.502;8.190;2024-01-15T10:51:16;17.65;;;9.07;;
66012;SDS011;52783;50.502;8.190;2024-01-15T10:53:42;19.30;;;9.18;;
66012;SDS011;52783;50.502;8.190;2024-01-15T10:56:08;21.10;;;9.55;;
66012;SDS011;52783;50.502;8.190;2024-01-15T10:58:36;17.70;;;8.48;;
66012;SDS011;52783;50.502;8.190;2024-01-15T11:01:04;20.77;;;8.55;;
66012;SDS011;52783;50.502;8.190;2024-01-15T11:03:30;14.65;;;7.95;;
66012;SDS011;52783;50.502;8.190;2024-01-15T11:05:56;17.58;;;8.52;;
66012;SDS011;52783;50.502;8.190;2024-01-15T11:08:21;19.52;;;8.88;;
66012;SDS011;52783;50.502;8.190;2024-01-15T11:10:50;18.73;;;8.43;;
66012;SDS011;52783;50.502;8.190;2024-01-15T11:29:06;14.38;;;7.72;;
66012;SDS011;52783;50.502;8.190;2024-01-15T11:34:05;15.55;;;8.57;;
66012;SDS011;52783;50.502;8.190;2024-01-15T11:37:08;14.50;;;8.15;;
66012;SDS011;52783;50.502;8.190;2024-01-15T11:41:56;19.52;;;8.27;;
66012;SDS011;52783;50.502;8.190;2024-01-15T11:44:26;16.25;;;8.65;;
66012;SDS011;52783;50.502;8.190;2024-01-15T11:52:26;12.75;;;7.97;;
66012;SDS011;52783;50.502;8.190;2024-01-15T11:57:42;14.02;;;8.40;;
66012;SDS011;52783;50.502;8.190;2024-01-15T12:00:16;14.95;;;8.15;;
66012;SDS011;52783;50.502;8.190;2024-01-15T12:02:42;15.77;;;8.05;;
66012;SDS011;52783;50.502;8.190;2024-01-15T12:05:09;20.15;;;9.20;;
66012;SDS011;52783;50.502;8.190;2024-01-15T12:07:38;16.65;;;9.07;;
66012;SDS011;52783;50.502;8.190;2024-01-15T12:10:10;16.17;;;8.15;;
66012;SDS011;52783;50.502;8.190;2024-01-15T12:12:47;17.92;;;8.27;;
66012;SDS011;52783;50.502;8.190;2024-01-15T12:15:18;15.52;;;8.55;;
66012;SDS011;52783;50.502;8.190;2024-01-15T12:17:45;16.48;;;8.35;;
66012;SDS011;52783;50.502;8.190;2024-01-15T12:20:12;16.77;;;8.55;;
66012;SDS011;52783;50.502;8.190;2024-01-15T12:22:38;17.75;;;8.18;;
66012;SDS011;52783;50.502;8.190;2024-01-15T12:25:04;14.00;;;7.72;;
66012;SDS011;52783;50.502;8.190;2024-01-15T12:27:30;16.05;;;8.70;;
66012;SDS011;52783;50.502;8.190;2024-01-15T12:29:56;12.82;;;7.45;;
66012;SDS011;52783;50.502;8.190;2024-01-15T12:32:23;13.93;;;7.50;;
66012;SDS011;52783;50.502;8.190;2024-01-15T12:34:49;13.38;;;6.82;;
66012;SDS011;52783;50.502;8.190;2024-01-15T12:37:17;10.57;;;6.65;;
66012;SDS011;52783;50.502;8.190;2024-01-15T12:39:44;11.25;;;6.05;;
66012;SDS011;52783;50.502;8.190;2024-01-15T12:42:10;8.55;;;5.25;;
66012;SDS011;52783;50.502;8.190;2024-01-15T12:44:35;12.05;;;6.20;;
66012;SDS011;52783;50.502;8.190;2024-01-15T12:47:03;8.90;;;5.30;;
66012;SDS011;52783;50.502;8.190;2024-01-15T12:49:29;8.27;;;5.20;;
66012;SDS011;52783;50.502;8.190;2024-01-15T12:51:58;15.05;;;8.35;;
66012;SDS011;52783;50.502;8.190;2024-01-15T12:54:24;35.75;;;13.88;;
66012;SDS011;52783;50.502;8.190;2024-01-15T12:56:51;13.38;;;6.80;;
66012;SDS011;52783;50.502;8.190;2024-01-15T12:59:17;12.32;;;6.20;;
66012;SDS011;52783;50.502;8.190;2024-01-15T13:01:43;11.48;;;6.15;;
66012;SDS011;52783;50.502;8.190;2024-01-15T13:04:09;12.98;;;6.78;;
66012;SDS011;52783;50.502;8.190;2024-01-15T13:06:35;9.93;;;5.80;;
66012;SDS011;52783;50.502;8.190;2024-01-15T13:09:01;4.93;;;3.72;;
66012;SDS011;52783;50.502;8.190;2024-01-15T13:11:30;14.93;;;8.93;;
66012;SDS011;52783;50.502;8.190;2024-01-15T13:13:56;13.07;;;8.85;;
66012;SDS011;52783;50.502;8.190;2024-01-15T13:16:22;6.38;;;4.18;;
66012;SDS011;52783;50.502;8.190;2024-01-15T13:18:47;6.05;;;4.45;;
66012;SDS011;52783;50.502;8.190;2024-01-15T13:21:14;7.35;;;4.68;;
66012;SDS011;52783;50.502;8.190;2024-01-15T13:23:40;4.90;;;3.67;;
66012;SDS011;52783;50.502;8.190;2024-01-15T13:26:06;9.75;;;5.63;;
66012;SDS011;52783;50.502;8.190;2024-01-15T13:28:32;12.48;;;5.93;;
66012;SDS011;52783;50.502;8.190;2024-01-15T13:30:57;4.03;;;3.08;;
66012;SDS011;52783;50.502;8.190;2024-01-15T13:33:23;5.95;;;4.00;;
66012;SDS011;52783;50.502;8.190;2024-01-15T13:35:48;8.77;;;4.22;;
66012;SDS011;52783;50.502;8.190;2024-01-15T13:38:15;5.90;;;4.28;;
66012;SDS011;52783;50.502;8.190;2024-01-15T13:40:41;15.57;;;7.00;;
66012;SDS011;52783;50.502;8.190;2024-01-15T13:43:06;7.60;;;3.58;;
66012;SDS011;52783;50.502;8.190;2024-01-15T13:45:33;10.40;;;4.97;;
66012;SDS011;52783;50.502;8.190;2024-01-15T13:48:00;12.13;;;7.60;;
66012;SDS011;52783;50.502;8.190;2024-01-15T13:50:26;7.13;;;4.40;;
66012;SDS011;52783;50.502;8.190;2024-01-15T13:52:52;8.68;;;5.45;;
66012;SDS011;52783;50.502;8.190;2024-01-15T13:55:18;14.65;;;5.88;;
66012;SDS011;52783;50.502;8.190;2024-01-15T13:57:43;17.38;;;8.85;;
66012;SDS011;52783;50.502;8.190;2024-01-15T14:00:09;7.15;;;4.43;;
66012;SDS011;52783;50.502;8.190;2024-01-15T14:02:37;11.52;;;6.32;;
66012;SDS011;52783;50.502;8.190;2024-01-15T14:05:02;12.07;;;5.65;;
66012;SDS011;52783;50.502;8.190;2024-01-15T14:07:28;19.90;;;10.40;;
66012;SDS011;52783;50.502;8.190;2024-01-15T14:09:53;14.43;;;8.13;;
66012;SDS011;52783;50.502;8.190;2024-01-15T14:12:19;19.10;;;7.22;;
66012;SDS011;52783;50.502;8.190;2024-01-15T14:14:44;13.00;;;5.50;;
66012;SDS011;52783;50.502;8.190;2024-01-15T14:17:10;12.00;;;4.88;;
66012;SDS011;52783;50.502;8.190;2024-01-15T14:19:35;17.55;;;7.55;;
66012;SDS011;52783;50.502;8.190;2024-01-15T14:22:01;12.68;;;7.40;;
66012;SDS011;52783;50.502;8.190;2024-01-15T14:24:26;14.00;;;7.32;;
66012;SDS011;52783;50.502;8.190;2024-01-15T14:26:52;21.70;;;7.97;;
66012;SDS011;52783;50.502;8.190;2024-01-15T14:29:17;11.55;;;5.68;;
66012;SDS011;52783;50.502;8.190;2024-01-15T14:31:47;19.23;;;7.13;;
66012;SDS011;52783;50.502;8.190;2024-01-15T14:34:13;26.67;;;11.20;;
66012;SDS011;52783;50.502;8.190;2024-01-15T14:36:38;20.77;;;8.80;;
66012;SDS011;52783;50.502;8.190;2024-01-15T14:39:04;21.33;;;8.77;;
66012;SDS011;52783;50.502;8.190;2024-01-15T14:41:29;14.60;;;7.00;;
66012;SDS011;52783;50.502;8.190;2024-01-15T14:43:55;21.75;;;10.50;;
66012;SDS011;52783;50.502;8.190;2024-01-15T14:46:22;23.17;;;9.93;;
66012;SDS011;52783;50.502;8.190;2024-01-15T14:48:47;17.65;;;8.02;;
66012;SDS011;52783;50.502;8.190;2024-01-15T14:51:13;14.18;;;7.03;;
66012;SDS011;52783;50.502;8.190;2024-01-15T14:53:39;11.90;;;5.60;;